createdAt,value
2019-04-01T00:00:12.356Z,8.30
2019-04-01T00:01:12.350Z,8.23
2019-04-01T00:02:12.345Z,8.27
2019-04-01T00:03:12.332Z,8.20
2019-04-01T00:04:12.335Z,8.24
2019-04-01T00:05:12.299Z,8.34
2019-04-01T00:06:12.291Z,8.18
2019-04-01T00:07:12.280Z,8.13
2019-04-01T00:08:12.264Z,8.30
2019-04-01T00:09:12.283Z,8.18
2019-04-01T00:10:12.249Z,8.16
2019-04-01T00:11:12.257Z,8.28
2019-04-01T00:12:12.226Z,8.19
2019-04-01T00:13:12.212Z,8.15
2019-04-01T00:14:12.653Z,8.24
2019-04-01T00:15:12.196Z,8.19
2019-04-01T00:16:12.185Z,8.12
2019-04-01T00:17:12.165Z,8.20
2019-04-01T00:18:12.165Z,8.15
2019-04-01T00:19:12.145Z,8.10
2019-04-01T00:20:12.164Z,8.13
2019-04-01T00:21:12.141Z,8.16
2019-04-01T00:22:12.119Z,8.18
2019-04-01T00:23:12.163Z,8.12
2019-04-01T00:24:12.096Z,8.10
2019-04-01T00:25:12.106Z,8.09
2019-04-01T00:26:12.101Z,8.15
2019-04-01T00:27:12.084Z,8.09
2019-04-01T00:28:12.052Z,8.09
2019-04-01T00:29:12.044Z,8.12
2019-04-01T00:30:12.031Z,8.12
2019-04-01T00:31:12.015Z,8.08
2019-04-01T00:32:12.031Z,8.05
2019-04-01T00:33:12.002Z,8.03
2019-04-01T00:34:11.993Z,8.05
2019-04-01T00:35:11.983Z,8.09
2019-04-01T00:36:11.975Z,8.05
2019-04-01T00:37:11.976Z,8.05
2019-04-01T00:38:11.943Z,8.06
2019-04-01T00:39:11.929Z,8.03
2019-04-01T00:40:11.928Z,8.01
2019-04-01T00:41:11.916Z,8.09
2019-04-01T00:42:11.938Z,8.03
2019-04-01T00:43:11.890Z,8.08
2019-04-01T00:44:11.885Z,8.06
2019-04-01T00:45:11.863Z,8.01
2019-04-01T00:46:11.851Z,8.05
2019-04-01T00:47:11.873Z,8.08
2019-04-01T00:48:11.838Z,8.03
2019-04-01T00:49:11.822Z,8.03
2019-04-01T00:50:11.807Z,8.01
2019-04-01T00:51:11.798Z,7.98
2019-04-01T00:52:11.814Z,8.00
2019-04-01T00:53:11.866Z,7.98
2019-04-01T00:54:11.774Z,7.97
2019-04-01T00:55:11.760Z,8.01
2019-04-01T00:56:21.659Z,7.95
2019-04-01T00:57:19.821Z,7.98
2019-04-01T00:58:11.758Z,7.95
2019-04-01T00:59:11.709Z,7.97
2019-04-01T01:00:20.737Z,7.87
2019-04-01T01:01:20.272Z,7.90
2019-04-01T01:02:20.299Z,7.90
2019-04-01T01:03:19.754Z,7.93
2019-04-01T01:04:20.867Z,7.88
2019-04-01T01:05:11.652Z,7.88
2019-04-01T01:06:11.639Z,7.91
2019-04-01T01:07:11.626Z,7.94
2019-04-01T01:08:11.616Z,7.87
2019-04-01T01:09:11.626Z,7.90
2019-04-01T01:10:11.596Z,7.88
2019-04-01T01:11:11.587Z,7.90
2019-04-01T01:12:11.604Z,7.90
2019-04-01T01:13:11.591Z,7.97
2019-04-01T01:14:11.576Z,7.88
2019-04-01T01:15:11.538Z,7.87
2019-04-01T01:16:11.533Z,7.90
2019-04-01T01:17:11.513Z,7.87
2019-04-01T01:18:11.501Z,7.91
2019-04-01T01:19:11.518Z,7.80
2019-04-01T01:20:11.489Z,7.82
2019-04-01T01:21:11.470Z,7.79
2019-04-01T01:22:11.463Z,7.82
2019-04-01T01:23:11.451Z,7.80
2019-04-01T01:24:11.554Z,7.77
2019-04-01T01:25:11.438Z,7.80
2019-04-01T01:26:11.435Z,7.72
2019-04-01T01:27:11.404Z,7.69
2019-04-01T01:28:11.396Z,7.79
2019-04-01T01:29:11.381Z,7.80
2019-04-01T01:30:11.396Z,7.77
2019-04-01T01:31:11.373Z,7.69
2019-04-01T01:32:11.358Z,7.69
2019-04-01T01:33:11.345Z,7.70
2019-04-01T01:34:11.338Z,7.77
2019-04-01T01:35:11.351Z,7.73
2019-04-01T01:36:11.310Z,7.75
2019-04-01T01:37:11.303Z,7.69
2019-04-01T01:38:11.291Z,7.69
2019-04-01T01:39:11.276Z,7.72
2019-04-01T01:40:11.368Z,7.58
2019-04-01T01:41:11.252Z,7.69
2019-04-01T01:42:11.239Z,7.61
2019-04-01T01:43:11.233Z,7.67
2019-04-01T01:44:11.234Z,7.61
2019-04-01T01:45:11.245Z,7.67
2019-04-01T01:46:11.203Z,7.57
2019-04-01T01:47:11.185Z,7.70
2019-04-01T01:48:11.179Z,7.67
2019-04-01T01:49:11.160Z,7.58
2019-04-01T01:50:11.153Z,7.63
2019-04-01T01:51:11.178Z,7.61
2019-04-01T01:52:11.154Z,7.63
2019-04-01T01:53:11.119Z,7.56
2019-04-01T01:54:11.109Z,7.56
2019-04-01T01:55:11.109Z,7.60
2019-04-01T01:56:11.109Z,7.57
2019-04-01T01:57:11.103Z,7.70
2019-04-01T01:58:11.069Z,7.60
2019-04-01T01:59:11.052Z,7.61
2019-04-01T02:00:11.044Z,7.53
2019-04-01T02:01:11.032Z,7.58
2019-04-01T02:02:11.045Z,7.67
2019-04-01T02:03:11.020Z,7.54
2019-04-01T02:04:11.005Z,7.47
2019-04-01T02:05:10.994Z,7.57
2019-04-01T02:06:10.986Z,7.60
2019-04-01T02:07:10.997Z,7.51
2019-04-01T02:08:10.951Z,7.57
2019-04-01T02:09:10.947Z,7.50
2019-04-01T02:10:10.957Z,7.57
2019-04-01T02:11:10.924Z,7.48
2019-04-01T02:12:10.911Z,7.57
2019-04-01T02:13:10.920Z,7.51
2019-04-01T02:14:10.949Z,7.42
2019-04-01T02:15:10.885Z,7.54
2019-04-01T02:16:10.876Z,7.42
2019-04-01T02:17:10.873Z,7.54
2019-04-01T02:18:10.889Z,7.51
2019-04-01T02:19:10.857Z,7.39
2019-04-01T02:20:10.826Z,7.45
2019-04-01T02:21:10.815Z,7.53
2019-04-01T02:22:10.804Z,7.51
2019-04-01T02:23:10.815Z,7.48
2019-04-01T02:24:10.784Z,7.53
2019-04-01T02:25:10.767Z,7.53
2019-04-01T02:26:10.759Z,7.51
2019-04-01T02:27:10.751Z,7.47
2019-04-01T02:28:10.761Z,7.50
2019-04-01T02:29:10.750Z,7.43
2019-04-01T02:30:10.717Z,7.43
2019-04-01T02:31:10.704Z,7.38
2019-04-01T02:32:10.700Z,7.40
2019-04-01T02:33:10.683Z,7.47
2019-04-01T02:34:10.693Z,7.40
2019-04-01T02:35:10.666Z,7.39
2019-04-01T02:36:10.658Z,7.39
2019-04-01T02:37:10.642Z,7.45
2019-04-01T02:38:10.680Z,7.33
2019-04-01T02:39:10.637Z,7.38
2019-04-01T02:40:10.638Z,7.39
2019-04-01T02:41:10.629Z,7.35
2019-04-01T02:42:10.588Z,7.38
2019-04-01T02:43:10.570Z,7.32
2019-04-01T02:44:10.590Z,7.36
2019-04-01T02:45:10.713Z,7.35
2019-04-01T02:46:10.539Z,7.25
2019-04-01T02:47:10.531Z,7.31
2019-04-01T02:48:10.558Z,7.25
2019-04-01T02:49:10.510Z,7.20
2019-04-01T02:50:10.551Z,7.20
2019-04-01T02:51:10.486Z,7.15
2019-04-01T02:52:10.474Z,7.32
2019-04-01T02:53:10.462Z,7.28
2019-04-01T02:54:10.466Z,7.23
2019-04-01T02:55:10.451Z,7.23
2019-04-01T02:56:10.470Z,7.31
2019-04-01T02:57:10.424Z,7.23
2019-04-01T02:58:10.420Z,7.17
2019-04-01T02:59:19.465Z,7.13
2019-04-01T03:00:10.411Z,7.11
2019-04-01T03:01:10.404Z,7.10
2019-04-01T03:02:10.372Z,7.13
2019-04-01T03:03:10.362Z,7.20
2019-04-01T03:04:10.369Z,7.15
2019-04-01T03:05:10.354Z,7.13
2019-04-01T03:06:10.319Z,7.10
2019-04-01T03:07:10.314Z,7.10
2019-04-01T03:08:10.304Z,7.07
2019-04-01T03:09:10.294Z,7.14
2019-04-01T03:10:10.312Z,7.02
2019-04-01T03:11:11.237Z,7.03
2019-04-01T03:12:10.268Z,7.00
2019-04-01T03:13:10.257Z,7.00
2019-04-01T03:14:10.250Z,7.05
2019-04-01T03:15:10.231Z,7.05
2019-04-01T03:16:10.242Z,7.06
2019-04-01T03:17:10.208Z,7.10
2019-04-01T03:18:10.191Z,6.93
2019-04-01T03:19:10.178Z,6.97
2019-04-01T03:20:10.172Z,6.93
2019-04-01T03:21:10.188Z,6.97
2019-04-01T03:22:10.151Z,6.93
2019-04-01T03:23:10.143Z,6.96
2019-04-01T03:24:10.134Z,6.87
2019-04-01T03:25:10.123Z,6.96
2019-04-01T03:26:10.138Z,7.02
2019-04-01T03:27:10.111Z,6.96
2019-04-01T03:28:10.088Z,6.95
2019-04-01T03:29:10.078Z,6.88
2019-04-01T03:30:10.132Z,6.97
2019-04-01T03:31:10.101Z,6.88
2019-04-01T03:32:10.067Z,6.99
2019-04-01T03:33:10.052Z,6.99
2019-04-01T03:34:10.064Z,6.82
2019-04-01T03:35:10.014Z,6.99
2019-04-01T03:36:10.025Z,6.82
2019-04-01T03:37:09.987Z,7.00
2019-04-01T03:38:09.993Z,6.93
2019-04-01T03:39:09.966Z,6.89
2019-04-01T03:40:09.954Z,6.84
2019-04-01T03:41:09.969Z,6.93
2019-04-01T03:42:09.943Z,6.95
2019-04-01T03:43:09.956Z,6.84
2019-04-01T03:44:09.920Z,6.93
2019-04-01T03:45:09.908Z,6.95
2019-04-01T03:46:09.902Z,6.93
2019-04-01T03:47:09.900Z,6.92
2019-04-01T03:48:09.880Z,6.87
2019-04-01T03:49:09.888Z,6.87
2019-04-01T03:50:09.853Z,6.82
2019-04-01T03:51:09.841Z,6.88
2019-04-01T03:52:10.484Z,6.85
2019-04-01T03:53:09.825Z,6.84
2019-04-01T03:54:09.836Z,6.82
2019-04-01T03:55:09.804Z,6.81
2019-04-01T03:56:09.789Z,6.74
2019-04-01T03:57:09.773Z,6.78
2019-04-01T03:58:09.766Z,6.75
2019-04-01T03:59:09.780Z,6.81
2019-04-01T04:00:09.750Z,6.77
2019-04-01T04:01:09.764Z,6.75
2019-04-01T04:02:09.722Z,6.77
2019-04-01T04:03:09.720Z,6.81
2019-04-01T04:04:09.734Z,6.84
2019-04-01T04:05:09.707Z,6.82
2019-04-01T04:06:09.700Z,6.78
2019-04-01T04:07:09.678Z,6.72
2019-04-01T04:08:09.660Z,6.75
2019-04-01T04:09:09.644Z,6.69
2019-04-01T04:10:09.678Z,6.67
2019-04-01T04:11:09.642Z,6.69
2019-04-01T04:12:09.612Z,6.60
2019-04-01T04:13:09.609Z,6.66
2019-04-01T04:14:09.596Z,6.64
2019-04-01T04:15:09.584Z,6.74
2019-04-01T04:16:09.591Z,6.66
2019-04-01T04:17:09.566Z,6.62
2019-04-01T04:18:09.560Z,6.51
2019-04-01T04:19:09.545Z,6.60
2019-04-01T04:20:09.561Z,6.59
2019-04-01T04:21:09.518Z,6.67
2019-04-01T04:22:09.507Z,6.52
2019-04-01T04:23:09.498Z,6.62
2019-04-01T04:24:09.521Z,6.63
2019-04-01T04:25:09.488Z,6.56
2019-04-01T04:26:09.509Z,6.51
2019-04-01T04:27:11.326Z,6.57
2019-04-01T04:28:09.470Z,6.57
2019-04-01T04:29:09.439Z,6.57
2019-04-01T04:30:09.423Z,6.56
2019-04-01T04:31:09.418Z,6.63
2019-04-01T04:32:09.431Z,6.54
2019-04-01T04:33:09.390Z,6.63
2019-04-01T04:34:09.380Z,6.56
2019-04-01T04:35:09.370Z,6.62
2019-04-01T04:36:09.362Z,6.59
2019-04-01T04:37:09.401Z,6.56
2019-04-01T04:38:09.369Z,6.57
2019-04-01T04:39:09.331Z,6.56
2019-04-01T04:40:09.324Z,6.60
2019-04-01T04:41:09.330Z,6.57
2019-04-01T04:42:09.296Z,6.59
2019-04-01T04:43:09.307Z,6.56
2019-04-01T04:44:09.273Z,6.64
2019-04-01T04:45:09.270Z,6.60
2019-04-01T04:46:09.257Z,6.62
2019-04-01T04:47:09.268Z,6.54
2019-04-01T04:48:09.241Z,6.51
2019-04-01T04:49:09.235Z,6.57
2019-04-01T04:50:09.225Z,6.57
2019-04-01T04:51:09.230Z,6.69
2019-04-01T04:52:09.225Z,6.56
2019-04-01T04:53:09.180Z,6.60
2019-04-01T04:54:09.169Z,6.62
2019-04-01T04:55:09.157Z,6.59
2019-04-01T04:56:09.151Z,6.52
2019-04-01T04:57:09.144Z,6.62
2019-04-01T04:58:09.154Z,6.57
2019-04-01T04:59:09.123Z,6.59
2019-04-01T05:00:09.111Z,6.63
2019-04-01T05:01:09.095Z,6.60
2019-04-01T05:02:09.085Z,6.62
2019-04-01T05:03:09.118Z,6.63
2019-04-01T05:04:09.067Z,6.60
2019-04-01T05:05:09.052Z,6.52
2019-04-01T05:06:09.044Z,6.64
2019-04-01T05:07:09.030Z,6.52
2019-04-01T05:08:09.018Z,6.63
2019-04-01T05:09:09.033Z,6.56
2019-04-01T05:10:09.007Z,6.63
2019-04-01T05:11:08.996Z,6.70
2019-04-01T05:12:09.002Z,6.63
2019-04-01T05:13:08.996Z,6.62
2019-04-01T05:14:08.956Z,6.51
2019-04-01T05:15:08.944Z,6.59
2019-04-01T05:16:08.933Z,6.60
2019-04-01T05:17:08.927Z,6.60
2019-04-01T05:18:08.923Z,6.52
2019-04-01T05:19:08.921Z,6.57
2019-04-01T05:20:08.894Z,6.63
2019-04-01T05:21:08.886Z,6.62
2019-04-01T05:22:08.875Z,6.60
2019-04-01T05:23:08.865Z,6.63
2019-04-01T05:24:08.875Z,6.69
2019-04-01T05:25:08.838Z,6.52
2019-04-01T05:26:08.826Z,6.63
2019-04-01T05:27:08.825Z,6.63
2019-04-01T05:28:08.805Z,6.67
2019-04-01T05:29:08.818Z,6.64
2019-04-01T05:30:08.789Z,6.70
2019-04-01T05:31:08.779Z,6.63
2019-04-01T05:32:08.768Z,6.75
2019-04-01T05:33:08.750Z,6.60
2019-04-01T05:34:08.773Z,6.63
2019-04-01T05:35:08.814Z,6.64
2019-04-01T05:36:08.724Z,6.64
2019-04-01T05:37:09.190Z,6.66
2019-04-01T05:38:08.701Z,6.57
2019-04-01T05:39:08.687Z,6.62
2019-04-01T05:40:08.719Z,6.60
2019-04-01T05:41:08.675Z,6.67
2019-04-01T05:42:08.662Z,6.64
2019-04-01T05:43:08.664Z,6.75
2019-04-01T05:44:08.644Z,6.77
2019-04-01T05:45:08.649Z,6.69
2019-04-01T05:46:08.635Z,6.75
2019-04-01T05:47:08.605Z,6.74
2019-04-01T05:48:08.646Z,6.79
2019-04-01T05:49:08.585Z,6.79
2019-04-01T05:50:08.608Z,6.81
2019-04-01T05:51:08.559Z,6.77
2019-04-01T05:52:08.555Z,6.77
2019-04-01T05:53:08.543Z,6.85
2019-04-01T05:54:08.532Z,6.81
2019-04-01T05:55:09.096Z,6.82
2019-04-01T05:56:08.510Z,6.87
2019-04-01T05:57:08.501Z,6.79
2019-04-01T05:58:08.481Z,6.81
2019-04-01T05:59:08.478Z,6.87
2019-04-01T06:00:08.493Z,6.81
2019-04-01T06:01:08.484Z,6.89
2019-04-01T06:02:08.445Z,6.96
2019-04-01T06:03:08.429Z,6.87
2019-04-01T06:04:08.423Z,6.96
2019-04-01T06:05:08.431Z,6.96
2019-04-01T06:06:08.422Z,6.88
2019-04-01T06:07:08.396Z,6.99
2019-04-01T06:08:08.375Z,7.02
2019-04-01T06:09:08.399Z,7.02
2019-04-01T06:10:08.361Z,6.99
2019-04-01T06:11:08.406Z,6.96
2019-04-01T06:12:08.336Z,7.07
2019-04-01T06:13:08.325Z,7.13
2019-04-01T06:14:08.308Z,6.99
2019-04-01T06:15:08.302Z,7.10
2019-04-01T06:16:08.289Z,6.99
2019-04-01T06:17:08.304Z,7.15
2019-04-01T06:18:08.274Z,7.06
2019-04-01T06:19:08.259Z,7.11
2019-04-01T06:20:08.257Z,7.10
2019-04-01T06:21:08.231Z,7.10
2019-04-01T06:22:08.245Z,7.10
2019-04-01T06:23:08.222Z,7.17
2019-04-01T06:24:08.204Z,7.21
2019-04-01T06:25:08.197Z,7.18
2019-04-01T06:26:08.180Z,7.25
2019-04-01T06:27:08.186Z,7.31
2019-04-01T06:28:08.156Z,7.32
2019-04-01T06:29:08.150Z,7.31
2019-04-01T06:30:08.159Z,7.31
2019-04-01T06:31:08.128Z,7.33
2019-04-01T06:32:09.016Z,7.43
2019-04-01T06:33:08.136Z,7.39
2019-04-01T06:34:08.110Z,7.38
2019-04-01T06:35:08.078Z,7.45
2019-04-01T06:36:08.067Z,7.51
2019-04-01T06:37:08.062Z,7.56
2019-04-01T06:38:08.072Z,7.51
2019-04-01T06:39:08.034Z,7.51
2019-04-01T06:40:08.075Z,7.58
2019-04-01T06:41:08.022Z,7.57
2019-04-01T06:42:08.022Z,7.57
2019-04-01T06:43:08.027Z,7.66
2019-04-01T06:44:07.985Z,7.53
2019-04-01T06:45:07.974Z,7.63
2019-04-01T06:46:07.958Z,7.56
2019-04-01T06:47:07.954Z,7.69
2019-04-01T06:48:07.950Z,7.53
2019-04-01T06:49:07.954Z,7.60
2019-04-01T06:50:07.940Z,7.63
2019-04-01T06:51:07.913Z,7.56
2019-04-01T06:52:07.900Z,7.60
2019-04-01T06:53:07.907Z,7.70
2019-04-01T06:54:07.897Z,7.58
2019-04-01T06:55:07.874Z,7.57
2019-04-01T06:56:07.857Z,7.69
2019-04-01T06:57:07.858Z,7.69
2019-04-01T06:58:07.832Z,7.83
2019-04-01T06:59:07.839Z,7.77
2019-04-01T07:00:07.811Z,7.94
2019-04-01T07:01:07.817Z,7.91
2019-04-01T07:02:07.792Z,7.91
2019-04-01T07:03:07.779Z,8.05
2019-04-01T07:04:07.800Z,8.05
2019-04-01T07:05:07.755Z,8.10
2019-04-01T07:06:07.744Z,8.18
2019-04-01T07:07:18.917Z,8.12
2019-04-01T07:08:08.719Z,8.10
2019-04-01T07:09:07.721Z,8.00
2019-04-01T07:10:07.730Z,7.87
2019-04-01T07:11:07.690Z,7.83
2019-04-01T07:12:07.681Z,7.69
2019-04-01T07:13:07.673Z,7.73
2019-04-01T07:14:07.664Z,7.77
2019-04-01T07:15:07.687Z,7.87
2019-04-01T07:16:15.440Z,7.93
2019-04-01T07:17:08.628Z,8.00
2019-04-01T07:18:07.614Z,8.09
2019-04-01T07:19:07.603Z,8.12
2019-04-01T07:20:08.967Z,8.23
2019-04-01T07:21:07.610Z,8.30
2019-04-01T07:22:07.578Z,8.38
2019-04-01T07:23:07.569Z,8.46
2019-04-01T07:24:07.572Z,8.46
2019-04-01T07:25:07.538Z,8.67
2019-04-01T07:26:07.547Z,8.70
2019-04-01T07:27:08.213Z,8.76
2019-04-01T07:28:07.513Z,8.67
2019-04-01T07:29:07.497Z,8.73
2019-04-01T07:30:07.499Z,8.55
2019-04-01T07:31:07.495Z,8.70
2019-04-01T07:32:07.464Z,8.79
2019-04-01T07:33:07.503Z,8.71
2019-04-01T07:34:07.467Z,8.88
2019-04-01T07:35:07.437Z,8.71
2019-04-01T07:36:07.426Z,8.81
2019-04-01T07:37:07.446Z,8.94
2019-04-01T07:38:07.399Z,8.99
2019-04-01T07:39:07.398Z,9.04
2019-04-01T07:40:07.379Z,9.14
2019-04-01T07:41:07.374Z,9.23
2019-04-01T07:42:07.360Z,9.47
2019-04-01T07:43:07.366Z,9.56
2019-04-01T07:44:07.356Z,9.65
2019-04-01T07:45:07.328Z,9.66
2019-04-01T07:46:08.238Z,9.79
2019-04-01T07:47:07.305Z,9.83
2019-04-01T07:48:07.311Z,9.86
2019-04-01T07:49:07.299Z,9.97
2019-04-01T07:50:07.346Z,10.02
2019-04-01T07:51:07.507Z,9.97
2019-04-01T07:52:07.255Z,10.02
2019-04-01T07:53:07.266Z,10.12
2019-04-01T07:54:07.233Z,10.20
2019-04-01T07:55:07.219Z,10.01
2019-04-01T07:56:07.213Z,9.91
2019-04-01T07:57:07.253Z,9.92
2019-04-01T07:58:07.213Z,9.86
2019-04-01T07:59:07.176Z,10.05
2019-04-01T08:00:07.167Z,10.10
2019-04-01T08:01:07.148Z,10.34
2019-04-01T08:02:07.148Z,10.37
2019-04-01T08:03:07.129Z,10.38
2019-04-01T08:04:07.141Z,10.42
2019-04-01T08:05:07.110Z,10.48
2019-04-01T08:06:07.121Z,10.60
2019-04-01T08:07:07.090Z,10.67
2019-04-01T08:08:07.080Z,10.74
2019-04-01T08:09:07.084Z,10.89
2019-04-01T08:10:07.066Z,11.02
2019-04-01T08:11:07.061Z,11.18
2019-04-01T08:12:07.102Z,11.18
2019-04-01T08:13:07.030Z,11.26
2019-04-01T08:14:07.016Z,11.36
2019-04-01T08:15:07.026Z,11.54
2019-04-01T08:16:06.990Z,11.63
2019-04-01T08:17:07.015Z,11.63
2019-04-01T08:18:06.972Z,11.63
2019-04-01T08:19:06.962Z,11.55
2019-04-01T08:20:06.951Z,11.60
2019-04-01T08:21:06.933Z,11.62
2019-04-01T08:22:06.924Z,11.65
2019-04-01T08:23:06.940Z,11.72
2019-04-01T08:24:06.898Z,11.72
2019-04-01T08:25:06.892Z,11.86
2019-04-01T08:26:06.907Z,11.95
2019-04-01T08:27:07.440Z,12.07
2019-04-01T08:28:06.888Z,12.09
2019-04-01T08:29:06.843Z,12.10
2019-04-01T08:30:06.866Z,12.31
2019-04-01T08:31:06.827Z,12.37
2019-04-01T08:32:06.817Z,12.37
2019-04-01T08:33:06.802Z,12.57
2019-04-01T08:34:06.802Z,12.60
2019-04-01T08:35:06.780Z,12.54
2019-04-01T08:36:06.789Z,12.22
2019-04-01T08:37:06.768Z,12.28
2019-04-01T08:38:06.832Z,12.40
2019-04-01T08:39:06.751Z,12.50
2019-04-01T08:40:06.732Z,12.67
2019-04-01T08:41:06.736Z,12.82
2019-04-01T08:42:06.703Z,12.87
2019-04-01T08:43:06.694Z,13.20
2019-04-01T08:44:06.685Z,13.35
2019-04-01T08:45:06.682Z,13.56
2019-04-01T08:46:06.685Z,13.81
2019-04-01T08:47:06.650Z,14.04
2019-04-01T08:48:06.640Z,14.37
2019-04-01T08:49:08.056Z,14.96
2019-04-01T08:50:06.646Z,15.67
2019-04-01T08:51:06.612Z,16.96
2019-04-01T08:52:06.601Z,18.47
2019-04-01T08:53:06.586Z,19.56
2019-04-01T08:54:06.571Z,21.37
2019-04-01T08:55:06.581Z,22.84
2019-04-01T08:56:06.550Z,24.28
2019-04-01T08:57:06.547Z,25.75
2019-04-01T08:58:06.574Z,26.96
2019-04-01T08:59:06.535Z,28.14
2019-04-01T09:00:06.531Z,29.24
2019-04-01T09:01:06.499Z,30.03
2019-04-01T09:02:17.090Z,30.90
2019-04-01T09:03:07.507Z,31.61
2019-04-01T09:04:06.485Z,31.90
2019-04-01T09:05:06.453Z,32.34
2019-04-01T09:06:06.607Z,32.51
2019-04-01T09:07:06.494Z,32.73
2019-04-01T09:08:06.426Z,32.90
2019-04-01T09:09:06.423Z,33.22
2019-04-01T09:10:06.412Z,33.23
2019-04-01T09:11:06.399Z,33.46
2019-04-01T09:12:06.389Z,33.62
2019-04-01T09:13:06.394Z,33.80
2019-04-01T09:14:06.363Z,33.73
2019-04-01T09:15:06.360Z,33.65
2019-04-01T09:16:06.342Z,32.55
2019-04-01T09:17:06.345Z,32.43
2019-04-01T09:18:06.352Z,31.58
2019-04-01T09:19:06.314Z,31.59
2019-04-01T09:20:06.310Z,31.93
2019-04-01T09:21:06.300Z,32.52
2019-04-01T09:22:06.287Z,33.00
2019-04-01T09:23:06.310Z,33.34
2019-04-01T09:24:06.273Z,33.59
2019-04-01T09:25:06.259Z,33.27
2019-04-01T09:26:06.246Z,33.32
2019-04-01T09:27:06.240Z,33.73
2019-04-01T09:28:06.229Z,34.21
2019-04-01T09:29:06.248Z,34.61
2019-04-01T09:30:06.241Z,35.12
2019-04-01T09:31:06.207Z,35.26
2019-04-01T09:32:06.200Z,35.51
2019-04-01T09:33:06.180Z,35.83
2019-04-01T09:34:06.206Z,36.14
2019-04-01T09:35:06.185Z,36.30
2019-04-01T09:36:06.164Z,36.47
2019-04-01T09:37:06.145Z,36.35
2019-04-01T09:38:06.134Z,36.58
2019-04-01T09:39:06.139Z,36.84
2019-04-01T09:40:06.139Z,36.93
2019-04-01T09:41:06.117Z,37.07
2019-04-01T09:42:06.103Z,37.18
2019-04-01T09:43:06.099Z,36.55
2019-04-01T09:44:06.087Z,36.31
2019-04-01T09:45:06.101Z,36.39
2019-04-01T09:46:06.057Z,36.68
2019-04-01T09:47:06.052Z,36.95
2019-04-01T09:48:06.044Z,36.88
2019-04-01T09:49:06.078Z,37.08
2019-04-01T09:50:06.029Z,37.20
2019-04-01T09:51:06.042Z,37.33
2019-04-01T09:52:06.005Z,37.40
2019-04-01T09:53:06.002Z,37.59
2019-04-01T09:54:06.068Z,37.83
2019-04-01T09:55:06.473Z,37.97
2019-04-01T09:56:05.985Z,38.12
2019-04-01T09:57:17.247Z,38.06
2019-04-01T09:58:06.952Z,38.21
2019-04-01T09:59:05.945Z,38.08
2019-04-01T10:00:05.935Z,38.17
2019-04-01T10:01:05.966Z,38.09
2019-04-01T10:02:05.927Z,38.04
2019-04-01T10:03:05.942Z,38.06
2019-04-01T10:04:05.906Z,37.86
2019-04-01T10:05:05.915Z,37.86
2019-04-01T10:06:05.923Z,37.53
2019-04-01T10:07:05.921Z,37.39
2019-04-01T10:08:05.879Z,37.37
2019-04-01T10:09:05.856Z,37.23
2019-04-01T10:10:05.851Z,37.03
2019-04-01T10:11:05.840Z,36.76
2019-04-01T10:12:05.914Z,36.51
2019-04-01T10:13:05.870Z,36.21
2019-04-01T10:14:05.834Z,35.83
2019-04-01T10:15:05.846Z,35.45
2019-04-01T10:16:05.834Z,34.83
2019-04-01T10:17:05.872Z,33.92
2019-04-01T10:18:05.820Z,32.89
2019-04-01T10:19:05.832Z,31.97
2019-04-01T10:20:05.766Z,31.12
2019-04-01T10:21:05.766Z,30.02
2019-04-01T10:22:05.748Z,29.23
2019-04-01T10:23:05.784Z,28.42
2019-04-01T10:24:05.728Z,27.83
2019-04-01T10:25:05.727Z,27.22
2019-04-01T10:26:05.715Z,26.60
2019-04-01T10:27:05.707Z,25.96
2019-04-01T10:28:05.722Z,25.66
2019-04-01T10:29:05.681Z,25.33
2019-04-01T10:30:05.676Z,25.10
2019-04-01T10:31:05.661Z,24.61
2019-04-01T10:32:05.652Z,24.39
2019-04-01T10:33:05.669Z,24.17
2019-04-01T10:34:05.660Z,24.06
2019-04-01T10:35:05.630Z,24.02
2019-04-01T10:36:05.622Z,23.63
2019-04-01T10:37:05.609Z,23.47
2019-04-01T10:38:05.624Z,23.28
2019-04-01T10:39:05.589Z,23.32
2019-04-01T10:40:05.588Z,23.28
2019-04-01T10:41:05.563Z,23.24
2019-04-01T10:42:05.552Z,23.15
2019-04-01T10:43:05.541Z,23.20
2019-04-01T10:44:05.553Z,23.10
2019-04-01T10:45:05.551Z,23.12
2019-04-01T10:46:05.515Z,23.08
2019-04-01T10:47:05.524Z,22.98
2019-04-01T10:48:05.519Z,22.90
2019-04-01T10:49:05.504Z,22.66
2019-04-01T10:50:05.525Z,22.55
2019-04-01T10:51:05.502Z,22.43
2019-04-01T10:52:05.463Z,22.36
2019-04-01T10:53:05.491Z,22.23
2019-04-01T10:54:05.463Z,22.06
2019-04-01T10:55:05.499Z,21.99
2019-04-01T10:56:05.411Z,21.76
2019-04-01T10:57:05.447Z,21.57
2019-04-01T10:58:05.394Z,21.46
2019-04-01T10:59:05.463Z,21.02
2019-04-01T11:00:05.417Z,20.80
2019-04-01T11:01:05.429Z,20.47
2019-04-01T11:02:05.368Z,20.39
2019-04-01T11:03:06.194Z,20.24
2019-04-01T11:04:05.375Z,20.06
2019-04-01T11:05:05.368Z,20.03
2019-04-01T11:06:05.321Z,20.03
2019-04-01T11:07:05.315Z,19.99
2019-04-01T11:08:05.339Z,20.02
2019-04-01T11:09:05.322Z,19.84
2019-04-01T11:10:05.260Z,19.64
2019-04-01T11:11:05.256Z,19.58
2019-04-01T11:12:05.270Z,19.37
2019-04-01T11:13:05.223Z,19.21
2019-04-01T11:14:05.220Z,19.09
2019-04-01T11:15:05.203Z,18.98
2019-04-01T11:16:05.189Z,19.00
2019-04-01T11:17:05.197Z,18.95
2019-04-01T11:18:05.207Z,19.00
2019-04-01T11:19:05.177Z,18.92
2019-04-01T11:20:05.154Z,18.96
2019-04-01T11:21:05.455Z,19.11
2019-04-01T11:22:05.134Z,18.66
2019-04-01T11:23:05.410Z,18.47
2019-04-01T11:24:07.584Z,18.33
2019-04-01T11:25:05.095Z,18.29
2019-04-01T11:26:05.086Z,18.07
2019-04-01T11:27:05.071Z,18.04
2019-04-01T11:28:05.096Z,18.01
2019-04-01T11:29:05.236Z,18.07
2019-04-01T11:30:05.049Z,18.11
2019-04-01T11:31:05.027Z,18.18
2019-04-01T11:32:05.078Z,18.18
2019-04-01T11:33:07.670Z,18.01
2019-04-01T11:34:05.054Z,18.05
2019-04-01T11:35:04.999Z,18.03
2019-04-01T11:36:05.015Z,17.97
2019-04-01T11:37:04.990Z,17.70
2019-04-01T11:38:04.971Z,17.39
2019-04-01T11:39:05.338Z,17.20
2019-04-01T11:40:04.964Z,17.05
2019-04-01T11:41:04.923Z,17.04
2019-04-01T11:42:04.927Z,17.02
2019-04-01T11:43:05.374Z,17.05
2019-04-01T11:44:04.947Z,17.23
2019-04-01T11:45:05.939Z,17.38
2019-04-01T11:46:04.965Z,17.39
2019-04-01T11:47:04.877Z,17.59
2019-04-01T11:48:04.903Z,17.59
2019-04-01T11:49:04.880Z,17.63
2019-04-01T11:50:04.876Z,17.63
2019-04-01T11:51:04.844Z,17.72
2019-04-01T11:52:04.847Z,17.65
2019-04-01T11:53:04.797Z,17.46
2019-04-01T11:54:08.017Z,17.29
2019-04-01T11:55:06.656Z,17.12
2019-04-01T11:56:04.760Z,17.06
2019-04-01T11:57:04.749Z,17.16
2019-04-01T11:58:04.750Z,17.29
2019-04-01T11:59:04.734Z,17.27
2019-04-01T12:00:04.751Z,17.22
2019-04-01T12:01:04.708Z,17.23
2019-04-01T12:02:04.696Z,17.20
2019-04-01T12:03:04.685Z,17.11
2019-04-01T12:04:04.685Z,17.08
2019-04-01T12:05:04.691Z,17.09
2019-04-01T12:06:04.653Z,17.19
2019-04-01T12:07:04.639Z,17.20
2019-04-01T12:08:04.626Z,17.23
2019-04-01T12:09:04.621Z,17.14
2019-04-01T12:10:07.500Z,17.05
2019-04-01T12:11:04.620Z,16.71
2019-04-01T12:12:04.590Z,16.50
2019-04-01T12:13:04.581Z,16.54
2019-04-01T12:14:05.180Z,16.64
2019-04-01T12:15:04.554Z,16.72
2019-04-01T12:16:04.569Z,16.66
2019-04-01T12:17:04.537Z,16.69
2019-04-01T12:18:04.524Z,16.69
2019-04-01T12:19:04.506Z,16.72
2019-04-01T12:20:04.495Z,16.76
2019-04-01T12:21:04.510Z,16.90
2019-04-01T12:22:04.479Z,16.81
2019-04-01T12:23:04.467Z,16.83
2019-04-01T12:24:04.458Z,16.81
2019-04-01T12:25:04.464Z,16.91
2019-04-01T12:26:15.156Z,16.84
2019-04-01T12:27:05.458Z,16.96
2019-04-01T12:28:04.409Z,17.05
2019-04-01T12:29:04.407Z,16.94
2019-04-01T12:30:04.393Z,16.94
2019-04-01T12:31:04.372Z,17.05
2019-04-01T12:32:04.371Z,17.06
2019-04-01T12:33:04.378Z,16.99
2019-04-01T12:34:04.350Z,16.99
2019-04-01T12:35:04.338Z,16.89
2019-04-01T12:36:04.326Z,16.84
2019-04-01T12:37:04.310Z,16.96
2019-04-01T12:38:04.322Z,16.89
2019-04-01T12:39:04.291Z,16.87
2019-04-01T12:40:04.278Z,16.84
2019-04-01T12:41:04.274Z,16.96
2019-04-01T12:42:04.262Z,17.11
2019-04-01T12:43:04.282Z,16.87
2019-04-01T12:44:04.242Z,16.61
2019-04-01T12:45:04.227Z,16.60
2019-04-01T12:46:04.212Z,16.35
2019-04-01T12:47:04.216Z,16.29
2019-04-01T12:48:04.198Z,16.13
2019-04-01T12:49:04.213Z,16.16
2019-04-01T12:50:04.172Z,16.09
2019-04-01T12:51:04.164Z,16.12
2019-04-01T12:52:04.148Z,16.20
2019-04-01T12:53:04.152Z,16.17
2019-04-01T12:54:04.132Z,16.23
2019-04-01T12:55:04.141Z,16.31
2019-04-01T12:56:04.112Z,16.47
2019-04-01T12:57:04.125Z,16.54
2019-04-01T12:58:04.088Z,16.57
2019-04-01T12:59:04.069Z,16.68
2019-04-01T13:00:04.084Z,16.64
2019-04-01T13:01:04.074Z,16.71
2019-04-01T13:02:04.048Z,16.66
2019-04-01T13:03:04.070Z,16.49
2019-04-01T13:04:04.509Z,16.50
2019-04-01T13:05:04.011Z,16.24
2019-04-01T13:06:03.998Z,16.10
2019-04-01T13:07:05.118Z,15.72